Time;durP1;ratioP1;P1;durP2;ratioP2;P2;SDS_P1;SDS_P2;PMS_P1;PMS_P2;Temp;Humidity;BMP_temperature;BMP_pressure;BME280_temperature;BME280_humidity;BME280_pressure;Samples;Min_cycle;Max_cycle;Signal;HPM_P1;HPM_P2
2021/07/06 00:00:24;;;;;;;;;2.00;2.00;;;;;20.38;73.73;100084.16;5010283;28;46485;-68
2021/07/06 00:02:51;;;;;;;;;4.00;2.00;;;;;20.36;74.06;100072.84;5008220;28;45564;-68
2021/07/06 00:05:18;;;;;;;;;4.50;2.00;;;;;20.32;74.59;100068.97;5010642;28;45616;-70
2021/07/06 00:07:43;;;;;;;;;2.50;2.50;;;;;20.31;74.19;100051.25;5009567;28;45527;-69
2021/07/06 00:10:10;;;;;;;;;2.25;2.25;;;;;20.31;74.55;100045.88;5010825;28;45543;-69
2021/07/06 00:12:36;;;;;;;;;2.50;2.50;;;;;20.29;74.01;100050.66;5011818;28;45575;-72
2021/07/06 00:15:04;;;;;;;;;2.50;2.00;;;;;20.30;74.28;100044.25;5012997;28;45550;-67
2021/07/06 00:17:30;;;;;;;;;1.75;1.00;;;;;20.29;73.61;100044.47;5006386;28;45532;-69
2021/07/06 00:19:55;;;;;;;;;2.00;2.00;;;;;20.29;73.71;100052.53;5029640;28;47166;-70
2021/07/06 00:22:21;;;;;;;;;1.00;1.00;;;;;20.28;72.80;100051.72;5009535;28;45488;-71
2021/07/06 00:24:47;;;;;;;;;2.75;1.75;;;;;20.29;72.52;100025.69;5014893;28;45692;-70
2021/07/06 00:27:13;;;;;;;;;1.00;1.00;;;;;20.29;72.94;100031.06;5014361;28;45491;-69
2021/07/06 00:29:38;;;;;;;;;2.00;1.50;;;;;20.29;73.29;100029.19;5009660;28;47188;-70
2021/07/06 00:32:04;;;;;;;;;1.00;1.00;;;;;20.29;72.18;100023.81;5012864;28;45361;-71
2021/07/06 00:34:30;;;;;;;;;1.00;1.00;;;;;20.29;72.52;100023.81;5012258;28;45473;-70
2021/07/06 00:36:55;;;;;;;;;2.50;1.50;;;;;20.29;72.29;100023.81;5012322;28;45502;-68
2021/07/06 00:39:21;;;;;;;;;1.25;1.25;;;;;20.29;71.68;100014.97;5007674;28;51477;-68
2021/07/06 00:41:46;;;;;;;;;1.50;1.00;;;;;20.30;71.89;100020.09;5006447;28;45692;-68
2021/07/06 00:44:14;;;;;;;;;1.75;1.75;;;;;20.32;72.29;100020.66;5009056;28;45484;-72
2021/07/06 00:46:39;;;;;;;;;2.75;2.00;;;;;20.33;72.51;100024.19;5007384;28;45464;-69
2021/07/06 00:49:05;;;;;;;;;4.75;2.00;;;;;20.33;71.93;100016.97;5006961;28;46379;-69
2021/07/06 00:51:30;;;;;;;;;2.00;1.00;;;;;20.35;72.18;100022.91;5009325;28;45544;-70
2021/07/06 00:53:55;;;;;;;;;2.00;1.50;;;;;20.36;71.68;100029.91;5011678;28;45445;-68
2021/07/06 00:56:21;;;;;;;;;2.00;1.25;;;;;20.37;71.91;100018.09;5012046;28;45910;-71
2021/07/06 00:58:47;;;;;;;;;1.50;1.50;;;;;20.38;71.25;100003.66;5010934;28;45601;-70
2021/07/06 01:01:13;;;;;;;;;1.00;1.00;;;;;20.38;71.06;100005.53;5009844;28;45583;-68
2021/07/06 01:03:38;;;;;;;;;0.50;0.50;;;;;20.36;70.26;100021.84;5010927;28;45496;-69
2021/07/06 01:06:04;;;;;;;;;1.75;1.00;;;;;20.33;70.22;100002.72;5009449;28;45512;-71
2021/07/06 01:08:29;;;;;;;;;0.75;0.00;;;;;20.32;70.41;100012.63;5009697;28;45637;-68
2021/07/06 01:10:54;;;;;;;;;1.00;1.00;;;;;20.31;70.11;100021.72;5005514;28;45879;-70
2021/07/06 01:13:20;;;;;;;;;1.00;1.00;;;;;20.30;69.50;100012.06;5007166;28;45514;-72
2021/07/06 01:15:45;;;;;;;;;1.00;0.00;;;;;20.30;69.76;100017.44;5006486;28;45883;-69
2021/07/06 01:18:14;;;;;;;;;1.50;0.25;;;;;20.31;70.19;100023.59;5010245;28;46529;-69
2021/07/06 01:20:52;;;;;;;;;0.00;0.00;;;;;20.31;69.28;100020.91;5008875;28;45868;-68
2021/07/06 01:23:21;;;;;;;;;1.75;0.75;;;;;20.30;69.10;100041.56;5010273;28;50242;-69
2021/07/06 01:25:47;;;;;;;;;1.25;1.00;;;;;20.29;68.94;100066.75;5007807;28;45548;-70
2021/07/06 01:28:13;;;;;;;;;0.00;0.00;;;;;20.27;68.67;100060.78;5010517;28;46127;-70
2021/07/06 01:30:39;;;;;;;;;0.25;0.25;;;;;20.28;69.47;100053.59;5008895;28;45596;-68
2021/07/06 01:33:06;;;;;;;;;1.00;1.00;;;;;20.28;68.58;100040.16;5010563;28;45538;-72
2021/07/06 01:35:32;;;;;;;;;0.50;0.25;;;;;20.26;68.82;100053.00;5006908;28;45625;-70
2021/07/06 01:38:04;;;;;;;;;0.50;0.50;;;;;20.24;68.70;100066.63;5012315;28;45525;-72
2021/07/06 01:40:31;;;;;;;;;0.00;0.00;;;;;20.21;68.75;100045.63;5009306;28;45450;-73
2021/07/06 01:42:58;;;;;;;;;0.00;0.00;;;;;20.19;68.83;100037.78;5014942;28;45413;-72
2021/07/06 01:45:26;;;;;;;;;0.00;0.00;;;;;20.18;68.92;100038.03;5006524;28;45469;-68
2021/07/06 01:47:54;;;;;;;;;0.50;0.50;;;;;20.17;68.71;100060.53;5014029;28;46307;-70
2021/07/06 01:50:27;;;;;;;;;1.50;0.00;;;;;20.12;68.56;100052.34;5002832;28;45842;-72
2021/07/06 01:52:56;;;;;;;;;0.00;0.00;;;;;20.10;68.61;100059.81;5011772;28;45378;-72
2021/07/06 01:55:28;;;;;;;;;0.00;0.00;;;;;20.07;68.85;100062.94;5008476;28;45679;-70
2021/07/06 01:57:56;;;;;;;;;0.00;0.00;;;;;20.05;68.63;100063.16;5010629;28;46266;-69
2021/07/06 02:00:24;;;;;;;;;1.00;1.00;;;;;20.02;68.60;100076.22;5008277;28;45491;-71
2021/07/06 02:02:49;;;;;;;;;0.00;0.00;;;;;19.98;68.90;100097.34;5006126;28;45456;-67
2021/07/06 02:05:17;;;;;;;;;0.00;0.00;;;;;19.97;69.07;100112.59;5007059;28;45514;-71
2021/07/06 02:07:43;;;;;;;;;0.00;0.00;;;;;19.94;69.21;100121.09;5004520;28;46167;-71
2021/07/06 02:10:10;;;;;;;;;0.00;0.00;;;;;19.91;68.87;100118.88;5010657;28;45486;-69
2021/07/06 02:12:36;;;;;;;;;0.00;0.00;;;;;19.88;69.31;100118.47;5010828;28;45462;-69
2021/07/06 02:15:04;;;;;;;;;0.00;0.00;;;;;19.85;69.09;100122.44;5006766;28;48879;-70
2021/07/06 02:17:30;;;;;;;;;0.00;0.00;;;;;19.83;69.67;100129.91;5008751;28;46537;-71
2021/07/06 02:19:55;;;;;;;;;0.00;0.00;;;;;19.81;69.71;100137.34;5009133;28;45842;-69
2021/07/06 02:22:21;;;;;;;;;0.00;0.00;;;;;19.79;69.39;100128.72;5008781;28;45988;-68
2021/07/06 02:24:46;;;;;;;;;0.00;0.00;;;;;19.77;70.14;100138.81;5010511;28;45842;-73
2021/07/06 02:27:12;;;;;;;;;0.75;0.00;;;;;19.75;69.29;100141.72;5009649;28;46010;-70
2021/07/06 02:29:38;;;;;;;;;0.25;0.00;;;;;19.71;68.81;100153.13;5008886;28;45558;-70
2021/07/06 02:32:04;;;;;;;;;0.00;0.00;;;;;19.67;69.18;100143.88;5009238;28;45942;-69
2021/07/06 02:34:29;;;;;;;;;0.00;0.00;;;;;19.65;69.99;100148.63;5011837;28;45798;-68
2021/07/06 02:36:55;;;;;;;;;0.00;0.00;;;;;19.62;69.82;100135.69;5013276;28;47180;-72
2021/07/06 02:39:20;;;;;;;;;0.00;0.00;;;;;19.60;69.96;100127.03;5010515;28;45363;-70
2021/07/06 02:41:45;;;;;;;;;0.00;0.00;;;;;19.59;70.18;100128.91;5017876;28;45521;-72
2021/07/06 02:44:11;;;;;;;;;0.00;0.00;;;;;19.58;70.10;100129.94;5020408;28;45330;-73
2021/07/06 02:46:36;;;;;;;;;1.00;0.00;;;;;19.56;69.69;100121.31;5012519;28;46432;-70
2021/07/06 02:49:01;;;;;;;;;0.00;0.00;;;;;19.53;69.88;100125.25;5012896;28;46033;-70
2021/07/06 02:51:27;;;;;;;;;0.00;0.00;;;;;19.51;70.20;100134.53;5010202;28;45525;-70
2021/07/06 02:53:52;;;;;;;;;0.00;0.00;;;;;19.47;70.15;100136.84;5015043;28;45422;-72
2021/07/06 02:56:18;;;;;;;;;0.00;0.00;;;;;19.45;70.19;100140.78;5010697;28;45450;-68
2021/07/06 02:58:43;;;;;;;;;0.75;0.00;;;;;19.43;70.73;100132.97;5015503;28;45499;-70
2021/07/06 03:01:09;;;;;;;;;0.25;0.25;;;;;19.39;70.30;100122.94;5011728;28;45457;-70
2021/07/06 03:03:34;;;;;;;;;0.00;0.00;;;;;19.36;70.55;100142.94;5012169;28;45736;-72
2021/07/06 03:06:00;;;;;;;;;0.00;0.00;;;;;19.35;71.14;100138.63;5011540;28;45544;-68
2021/07/06 03:08:29;;;;;;;;;0.00;0.00;;;;;19.32;70.52;100144.44;5011160;28;45528;-72
2021/07/06 03:10:54;;;;;;;;;0.00;0.00;;;;;19.30;71.46;100159.91;5011149;28;45555;-71
2021/07/06 03:13:20;;;;;;;;;1.00;0.00;;;;;19.26;70.72;100161.38;5011774;28;45423;-70
2021/07/06 03:15:45;;;;;;;;;0.00;0.00;;;;;19.23;70.62;100153.78;5014412;28;47213;-74
2021/07/06 03:18:11;;;;;;;;;0.00;0.00;;;;;19.20;70.74;100136.28;5019847;28;45780;-68
2021/07/06 03:20:36;;;;;;;;;0.00;0.00;;;;;19.17;71.06;100138.59;5011411;28;45240;-69
2021/07/06 03:23:03;;;;;;;;;0.50;0.50;;;;;19.13;70.62;100135.53;5014971;28;45417;-72
2021/07/06 03:25:29;;;;;;;;;0.00;0.00;;;;;19.10;70.58;100138.66;5014734;28;45454;-73
2021/07/06 03:27:55;;;;;;;;;0.75;0.00;;;;;19.05;70.62;100144.66;5013088;28;45414;-72
2021/07/06 03:30:23;;;;;;;;;0.00;0.00;;;;;19.02;70.90;100137.09;5013781;28;45643;-70
2021/07/06 03:32:51;;;;;;;;;0.00;0.00;;;;;19.00;70.20;100139.16;5011641;28;45477;-69
2021/07/06 03:35:17;;;;;;;;;0.00;0.00;;;;;18.98;69.89;100138.53;5009497;28;46644;-70
2021/07/06 03:37:42;;;;;;;;;0.00;0.00;;;;;18.96;70.31;100135.25;5010646;28;48540;-70
2021/07/06 03:40:09;;;;;;;;;0.00;0.00;;;;;18.92;70.25;100128.72;5026446;28;45471;-70
2021/07/06 03:42:35;;;;;;;;;1.00;0.25;;;;;18.89;70.21;100134.50;5011304;28;45495;-70
2021/07/06 03:45:01;;;;;;;;;0.00;0.00;;;;;18.86;68.69;100126.91;5011336;28;45438;-72
2021/07/06 03:47:26;;;;;;;;;0.75;0.00;;;;;18.81;68.28;100122.19;5007434;28;45375;-69
2021/07/06 03:49:51;;;;;;;;;0.00;0.00;;;;;18.74;68.71;100128.63;5013509;28;45674;-69
2021/07/06 03:52:17;;;;;;;;;2.00;0.00;;;;;18.72;67.93;100152.94;5014981;28;45475;-68
2021/07/06 03:54:42;;;;;;;;;1.75;0.00;;;;;18.65;67.28;100144.94;5013394;28;46655;-72
2021/07/06 03:57:08;;;;;;;;;1.25;0.00;;;;;18.57;68.04;100137.19;5010796;28;45519;-74
2021/07/06 03:59:33;;;;;;;;;1.25;0.00;;;;;18.50;67.74;100146.31;5010758;28;45510;-72
2021/07/06 04:01:58;;;;;;;;;0.75;0.00;;;;;18.42;67.71;100144.66;5007167;28;45447;-73
2021/07/06 04:04:24;;;;;;;;;2.00;0.25;;;;;18.36;67.50;100145.53;5008556;28;48080;-74
2021/07/06 04:06:50;;;;;;;;;0.00;0.00;;;;;18.33;67.73;100154.00;5014552;28;45579;-69
2021/07/06 04:09:15;;;;;;;;;1.00;0.00;;;;;18.31;67.74;100156.06;5008265;28;45568;-70
2021/07/06 04:11:41;;;;;;;;;0.00;0.00;;;;;18.26;67.75;100162.88;5009134;28;45777;-72
2021/07/06 04:14:06;;;;;;;;;1.75;0.00;;;;;18.23;67.78;100174.00;5010206;28;45366;-70
2021/07/06 04:16:32;;;;;;;;;2.00;0.50;;;;;18.20;67.57;100173.59;5009285;28;45532;-69
2021/07/06 04:18:57;;;;;;;;;0.00;0.00;;;;;18.17;67.60;100185.53;5012234;28;45545;-71
2021/07/06 04:21:23;;;;;;;;;0.00;0.00;;;;;18.13;67.84;100184.34;5010562;28;45382;-69
2021/07/06 04:23:48;;;;;;;;;1.75;0.25;;;;;18.10;68.23;100186.59;5012332;28;45893;-69
2021/07/06 04:26:14;;;;;;;;;1.50;0.00;;;;;18.06;68.31;100194.22;5013766;28;45370;-70
2021/07/06 04:28:39;;;;;;;;;2.00;0.00;;;;;18.03;68.12;100186.66;5012861;28;45473;-70
2021/07/06 04:31:05;;;;;;;;;0.50;0.00;;;;;17.99;68.10;100188.09;5012794;28;45352;-72
2021/07/06 04:33:31;;;;;;;;;0.50;0.00;;;;;17.96;68.13;100191.19;5008718;28;45549;-70
2021/07/06 04:35:57;;;;;;;;;0.50;0.00;;;;;17.94;67.73;100188.72;5003869;28;45513;-72
2021/07/06 04:38:22;;;;;;;;;0.25;0.00;;;;;17.90;67.84;100192.81;5004682;28;45690;-72
2021/07/06 04:40:47;;;;;;;;;3.00;1.00;;;;;17.86;68.27;100196.97;5007688;28;45608;-70
2021/07/06 04:43:13;;;;;;;;;0.25;0.25;;;;;17.84;67.86;100191.00;5008017;28;46541;-72
2021/07/06 04:45:38;;;;;;;;;1.75;1.00;;;;;17.82;67.60;100204.56;5011950;28;45526;-72
2021/07/06 04:48:05;;;;;;;;;0.00;0.00;;;;;17.82;67.22;100206.44;5010315;28;45533;-69
2021/07/06 04:50:33;;;;;;;;;1.25;0.00;;;;;17.80;67.32;100204.00;5006601;28;45643;-72
2021/07/06 04:52:58;;;;;;;;;0.00;0.00;;;;;17.78;66.76;100203.34;5008109;28;47092;-67
2021/07/06 04:55:24;;;;;;;;;1.50;0.50;;;;;17.79;67.35;100204.97;5029793;28;45785;-69
2021/07/06 04:57:49;;;;;;;;;1.00;1.00;;;;;17.82;67.03;100215.28;5011279;28;45391;-70
2021/07/06 05:00:17;;;;;;;;;2.50;1.00;;;;;17.89;66.73;100215.25;5007681;28;45448;-71
2021/07/06 05:02:43;;;;;;;;;1.00;1.00;;;;;17.95;66.88;100218.94;5010050;28;45621;-71
2021/07/06 05:05:09;;;;;;;;;0.00;0.00;;;;;18.05;66.48;100213.97;5010029;28;45556;-73
2021/07/06 05:07:35;;;;;;;;;1.50;0.00;;;;;18.18;66.21;100213.13;5007880;28;45518;-71
2021/07/06 05:10:04;;;;;;;;;1.25;0.00;;;;;18.28;65.39;100218.84;5009726;28;45387;-74
2021/07/06 05:12:30;;;;;;;;;1.50;1.00;;;;;18.39;64.52;100226.19;5008993;28;46516;-70
2021/07/06 05:14:55;;;;;;;;;2.00;0.00;;;;;18.50;64.21;100226.56;5013658;28;45540;-71
2021/07/06 05:17:20;;;;;;;;;1.00;0.75;;;;;18.60;63.82;100218.91;5010218;28;45593;-73
2021/07/06 05:19:46;;;;;;;;;2.50;0.50;;;;;18.63;61.96;100232.66;5005296;28;45646;-71
2021/07/06 05:22:11;;;;;;;;;0.75;0.75;;;;;18.63;62.53;100239.88;5012821;28;45448;-72
2021/07/06 05:24:36;;;;;;;;;1.25;0.50;;;;;18.61;62.62;100232.03;5009625;28;45545;-72
2021/07/06 05:27:02;;;;;;;;;2.00;0.50;;;;;18.63;62.90;100238.00;5009644;28;46026;-71
2021/07/06 05:29:27;;;;;;;;;2.25;0.50;;;;;18.67;62.32;100235.75;5008554;28;45530;-70
2021/07/06 05:31:53;;;;;;;;;0.50;0.50;;;;;18.67;62.69;100231.19;5006484;28;45600;-70
2021/07/06 05:34:18;;;;;;;;;0.50;0.50;;;;;18.68;61.77;100238.19;5006356;28;45446;-67
2021/07/06 05:36:44;;;;;;;;;2.25;1.00;;;;;18.66;61.58;100244.78;5020927;28;45540;-70
2021/07/06 05:39:10;;;;;;;;;0.50;0.50;;;;;18.60;62.49;100243.78;5004814;28;45576;-68
2021/07/06 05:41:35;;;;;;;;;0.75;0.50;;;;;18.52;62.12;100236.03;5015685;28;48552;-68
2021/07/06 05:44:01;;;;;;;;;3.50;1.00;;;;;18.42;61.66;100238.31;5010245;28;45501;-70
2021/07/06 05:46:30;;;;;;;;;1.50;0.50;;;;;18.40;62.33;100249.25;5004034;28;45484;-71
2021/07/06 05:48:55;;;;;;;;;3.25;0.25;;;;;18.41;62.27;100255.41;5010724;28;45563;-69
2021/07/06 05:51:21;;;;;;;;;1.50;0.00;;;;;18.42;61.43;100265.06;5008936;28;45595;-70
2021/07/06 05:53:49;;;;;;;;;0.25;0.25;;;;;18.47;62.34;100259.91;5003896;28;45525;-72
2021/07/06 05:56:21;;;;;;;;;1.75;0.00;;;;;18.51;61.85;100266.47;5002922;28;45484;-70
2021/07/06 05:58:47;;;;;;;;;2.25;1.00;;;;;18.53;58.19;100277.78;5007484;28;45679;-69
2021/07/06 06:01:13;;;;;;;;;1.50;0.00;;;;;18.48;61.02;100261.56;5007960;28;45551;-70
2021/07/06 06:03:39;;;;;;;;;2.50;0.50;;;;;18.45;61.56;100275.38;5008168;28;45781;-72
2021/07/06 06:06:04;;;;;;;;;5.50;1.00;;;;;18.43;59.74;100288.94;5003859;28;45494;-72
2021/07/06 06:08:29;;;;;;;;;3.25;0.50;;;;;18.47;60.18;100270.59;5003556;28;46202;-71
2021/07/06 06:10:55;;;;;;;;;2.75;1.00;;;;;18.49;61.14;100273.88;5003148;28;45640;-70
2021/07/06 06:13:21;;;;;;;;;3.25;0.50;;;;;18.56;61.46;100279.22;5005396;28;45650;-71
2021/07/06 06:15:46;;;;;;;;;3.00;1.00;;;;;18.57;60.72;100281.69;5009088;28;45526;-71
2021/07/06 06:18:13;;;;;;;;;0.25;0.25;;;;;18.69;60.92;100281.81;4997581;28;45881;-72
2021/07/06 06:20:38;;;;;;;;;1.00;0.50;;;;;18.83;61.07;100279.94;5003183;28;46982;-71
2021/07/06 06:23:04;;;;;;;;;2.25;1.00;;;;;18.95;60.91;100296.97;5002898;28;53212;-72
2021/07/06 06:25:31;;;;;;;;;3.00;1.50;;;;;19.01;58.08;100288.06;5006346;28;45319;-72
2021/07/06 06:27:57;;;;;;;;;3.75;1.25;;;;;19.00;60.18;100313.22;5010135;28;45422;-69
2021/07/06 06:30:23;;;;;;;;;1.50;0.50;;;;;19.09;60.69;100309.25;4998553;28;46249;-72
2021/07/06 06:32:48;;;;;;;;;1.00;1.00;;;;;19.21;59.81;100316.59;5001449;28;45965;-72
2021/07/06 06:35:14;;;;;;;;;2.25;2.00;;;;;19.32;59.46;100321.25;5017746;28;45894;-68
2021/07/06 06:37:40;;;;;;;;;4.50;2.00;;;;;19.30;57.16;100305.38;5003659;28;45507;-71
2021/07/06 06:40:08;;;;;;;;;2.00;1.00;;;;;19.16;58.58;100301.16;5008096;28;45585;-73
2021/07/06 06:42:33;;;;;;;;;4.50;1.75;;;;;18.98;58.55;100330.53;5006025;28;46012;-72
2021/07/06 06:44:59;;;;;;;;;0.25;0.25;;;;;18.78;58.64;100323.41;5004007;28;45752;-73
2021/07/06 06:47:24;;;;;;;;;3.25;1.00;;;;;18.65;60.35;100326.13;5010569;28;45410;-72
2021/07/06 06:49:49;;;;;;;;;2.75;1.00;;;;;18.59;61.02;100333.13;5019889;28;48326;-73
2021/07/06 06:52:15;;;;;;;;;5.50;1.25;;;;;18.50;61.43;100326.38;5008120;28;45939;-73
2021/07/06 06:54:40;;;;;;;;;0.50;0.50;;;;;18.40;62.04;100326.00;5007332;28;45762;-73
2021/07/06 06:57:06;;;;;;;;;3.25;1.50;;;;;18.40;62.36;100323.34;5004064;28;45815;-72
2021/07/06 06:59:32;;;;;;;;;3.25;2.00;;;;;18.42;62.02;100337.31;5003619;28;45522;-73
2021/07/06 07:04:41;;;;;;;;;3.00;1.75;;;;;18.39;61.71;100337.72;5008198;28;45458;-74
2021/07/06 07:07:07;;;;;;;;;2.00;2.00;;;;;18.39;61.55;100348.44;5006951;28;45545;-76
2021/07/06 07:09:32;;;;;;;;;2.25;1.00;;;;;18.39;61.93;100353.78;5004895;28;45536;-74
2021/07/06 07:11:58;;;;;;;;;2.00;1.75;;;;;18.37;61.43;100350.50;5006654;28;45572;-74
2021/07/06 07:14:23;;;;;;;;;1.50;1.50;;;;;18.37;61.04;100363.88;5007344;28;45599;-77
2021/07/06 07:16:50;;;;;;;;;4.25;2.00;;;;;18.39;61.71;100367.16;5004554;28;45559;-74
2021/07/06 07:19:16;;;;;;;;;0.50;0.50;;;;;18.36;60.46;100359.56;5012676;28;46682;-73
2021/07/06 07:21:41;;;;;;;;;4.00;3.00;;;;;18.33;60.30;100360.81;5012807;28;45495;-73
2021/07/06 07:24:07;;;;;;;;;2.25;2.00;;;;;18.31;60.81;100360.19;5009103;28;45406;-72
2021/07/06 07:26:32;;;;;;;;;2.50;1.75;;;;;18.36;61.58;100359.56;5008881;28;45551;-76
2021/07/06 07:28:58;;;;;;;;;1.00;1.00;;;;;18.42;59.38;100372.09;5004266;28;45449;-73
2021/07/06 07:31:23;;;;;;;;;3.00;1.75;;;;;18.35;60.85;100364.09;5006218;28;45425;-74
2021/07/06 07:33:49;;;;;;;;;2.00;2.00;;;;;18.35;61.01;100363.28;5010733;28;45400;-75
2021/07/06 07:36:14;;;;;;;;;4.00;2.00;;;;;18.39;60.28;100369.84;5003059;28;45465;-72
2021/07/06 07:38:39;;;;;;;;;2.00;1.00;;;;;18.47;60.40;100377.63;5008006;28;45527;-74
2021/07/06 07:41:05;;;;;;;;;1.50;1.00;;;;;18.48;61.01;100387.31;5008195;28;45532;-70
2021/07/06 07:43:30;;;;;;;;;2.75;2.50;;;;;18.53;60.52;100392.03;5007765;28;45784;-74
2021/07/06 07:45:56;;;;;;;;;3.00;3.00;;;;;18.55;59.65;100389.97;5007315;28;45521;-74
2021/07/06 07:48:21;;;;;;;;;4.75;2.75;;;;;18.55;60.45;100389.97;5002952;28;45509;-73
2021/07/06 07:50:47;;;;;;;;;2.00;1.50;;;;;18.61;60.26;100389.94;4999871;28;45669;-78
2021/07/06 07:53:13;;;;;;;;;5.50;3.25;;;;;18.66;59.37;100400.84;5007507;28;45603;-81
2021/07/06 07:55:38;;;;;;;;;4.75;1.50;;;;;18.66;57.30;100403.50;4997080;28;45877;-73
2021/07/06 07:58:04;;;;;;;;;4.00;1.50;;;;;18.64;60.31;100388.69;5004567;28;45629;-73
2021/07/06 08:00:29;;;;;;;;;3.75;3.00;;;;;18.64;59.26;100399.41;5002754;28;45635;-76
2021/07/06 08:02:55;;;;;;;;;3.00;1.50;;;;;18.67;60.26;100407.03;5005187;28;45584;-76
2021/07/06 08:05:20;;;;;;;;;1.00;1.00;;;;;18.80;59.37;100404.34;5003468;28;45553;-75
2021/07/06 08:07:46;;;;;;;;;1.50;1.50;;;;;18.90;58.10;100411.94;5003955;28;46193;-77
2021/07/06 08:10:11;;;;;;;;;1.00;1.00;;;;;18.98;60.21;100416.22;5006724;28;45605;-69
2021/07/06 08:12:37;;;;;;;;;3.75;1.50;;;;;19.07;58.69;100420.31;5007539;28;45616;-68
2021/07/06 08:15:04;;;;;;;;;3.00;2.00;;;;;19.11;59.82;100416.16;5002438;28;45556;-77
2021/07/06 08:17:29;;;;;;;;;2.50;2.00;;;;;19.17;59.89;100427.91;5004555;28;45921;-72
2021/07/06 08:19:59;;;;;;;;;4.25;3.00;;;;;19.21;59.38;100418.38;5010607;28;45458;-73
2021/07/06 08:22:25;;;;;;;;;3.75;1.50;;;;;19.21;57.67;100439.81;4999007;28;45607;-74
2021/07/06 08:24:52;;;;;;;;;2.75;2.00;;;;;19.21;58.95;100439.81;5007835;28;45543;-74
2021/07/06 08:27:17;;;;;;;;;1.75;0.75;;;;;19.24;56.10;100439.41;5010862;28;45529;-74
2021/07/06 08:29:43;;;;;;;;;2.00;2.00;;;;;19.20;57.21;100438.19;5009598;28;45640;-75
2021/07/06 08:32:08;;;;;;;;;2.75;2.75;;;;;19.16;58.03;100439.63;5008106;28;45577;-74
2021/07/06 08:34:33;;;;;;;;;6.00;2.75;;;;;19.18;58.80;100453.63;5007768;28;45862;-74
2021/07/06 08:36:59;;;;;;;;;1.50;0.75;;;;;19.23;58.50;100456.50;5011186;28;45463;-75
2021/07/06 08:39:24;;;;;;;;;6.25;1.00;;;;;19.31;57.84;100459.78;5000227;28;45379;-72
2021/07/06 08:41:50;;;;;;;;;6.00;2.00;;;;;19.38;57.59;100459.72;5010320;28;45433;-72
2021/07/06 08:44:16;;;;;;;;;1.00;0.75;;;;;19.41;58.33;100458.47;5001630;28;45489;-73
2021/07/06 08:46:42;;;;;;;;;5.25;2.50;;;;;19.49;58.50;100466.28;5009784;28;46051;-76
2021/07/06 08:49:11;;;;;;;;;3.00;2.00;;;;;19.56;57.40;100472.44;5009409;28;46062;-72
2021/07/06 08:51:40;;;;;;;;;2.50;2.00;;;;;19.57;57.59;100470.56;5007386;28;45474;-74
2021/07/06 08:54:06;;;;;;;;;4.25;1.75;;;;;19.54;58.48;100475.31;5004399;28;45585;-76
2021/07/06 08:56:32;;;;;;;;;3.75;3.50;;;;;19.59;57.61;100472.00;5014777;28;45505;-74
2021/07/06 08:58:57;;;;;;;;;2.75;2.75;;;;;19.63;57.13;100469.69;5012572;28;45511;-74
2021/07/06 09:01:28;;;;;;;;;1.50;1.50;;;;;19.63;57.37;100477.72;5010117;28;45578;-72
2021/07/06 09:03:59;;;;;;;;;3.50;1.75;;;;;19.64;58.01;100480.22;5004670;28;45921;-75
2021/07/06 09:06:26;;;;;;;;;3.25;2.00;;;;;19.71;58.24;100474.84;5005304;28;45615;-72
2021/07/06 09:09:18;;;;;;;;;2.00;2.00;;;;;19.83;57.30;100489.22;5007206;28;54263;-72
2021/07/06 09:11:47;;;;;;;;;4.00;2.50;;;;;19.90;57.51;100492.63;5002827;28;45647;-70
2021/07/06 09:14:13;;;;;;;;;4.00;2.75;;;;;19.94;57.92;100495.72;5002862;28;45949;-72
2021/07/06 09:16:39;;;;;;;;;2.00;2.00;;;;;20.00;57.45;100510.13;5002809;28;46618;-71
2021/07/06 09:19:23;;;;;;;;;2.00;1.50;;;;;20.11;56.41;100487.97;5010616;28;45441;-70
2021/07/06 09:22:08;;;;;;;;;2.50;2.50;;;;;20.16;55.98;100488.16;5007865;28;45499;-72
2021/07/06 09:24:33;;;;;;;;;3.00;2.00;;;;;20.30;55.67;100473.59;4998494;28;45523;-72
2021/07/06 09:27:18;;;;;;;;;3.75;1.75;;;;;20.56;57.13;100488.66;5008051;28;45499;-72
2021/07/06 09:30:14;;;;;;;;;2.00;2.00;;;;;20.84;55.23;100479.28;5006223;28;45535;-72
2021/07/06 09:32:43;;;;;;;;;3.50;2.00;;;;;21.38;55.39;100490.22;4994029;28;45990;-70
2021/07/06 09:35:13;;;;;;;;;5.75;1.25;;;;;21.92;54.87;100491.16;5003135;28;45591;-73
2021/07/06 09:37:46;;;;;;;;;3.75;2.00;;;;;22.43;55.37;100487.06;5003876;28;46324;-65
2021/07/06 09:40:34;;;;;;;;;3.00;2.00;;;;;22.98;53.16;100485.88;5001908;28;45558;-74
2021/07/06 09:43:21;;;;;;;;;2.00;1.00;;;;;23.18;51.60;100482.78;5004148;28;45392;-70
2021/07/06 09:45:55;;;;;;;;;3.50;2.00;;;;;23.07;51.42;100491.72;5003103;28;45551;-70
2021/07/06 09:48:20;;;;;;;;;3.00;2.00;;;;;23.56;52.42;100486.75;5004072;28;45448;-71
2021/07/06 09:50:46;;;;;;;;;3.00;2.00;;;;;24.39;52.34;100495.22;5001653;28;45570;-73
2021/07/06 09:53:31;;;;;;;;;3.00;2.00;;;;;25.34;48.24;100503.31;5012299;28;45548;-63
2021/07/06 09:55:58;;;;;;;;;2.50;2.00;;;;;26.10;48.01;100495.16;5002534;28;45497;-68
2021/07/06 09:58:23;;;;;;;;;2.00;1.00;;;;;26.96;48.58;100502.28;5004035;28;45556;-75
2021/07/06 10:00:53;;;;;;;;;2.00;2.00;;;;;27.44;46.30;100501.13;5001716;28;45600;-72
2021/07/06 10:03:19;;;;;;;;;4.00;2.00;;;;;28.03;43.95;100499.88;4998041;28;45511;-71
2021/07/06 10:05:48;;;;;;;;;2.00;2.00;;;;;28.46;45.54;100508.59;5001672;28;45687;-72
2021/07/06 10:08:14;;;;;;;;;2.00;1.00;;;;;28.54;42.86;100503.66;5001882;28;45776;-72
2021/07/06 10:10:40;;;;;;;;;2.75;1.50;;;;;28.36;42.83;100505.84;5000596;28;45551;-69
2021/07/06 10:13:05;;;;;;;;;1.00;1.00;;;;;28.67;41.61;100508.56;5003255;28;45472;-74
2021/07/06 10:15:33;;;;;;;;;2.50;1.50;;;;;29.04;41.41;100504.63;4995994;28;45659;-74
2021/07/06 10:18:01;;;;;;;;;1.00;1.00;;;;;29.48;41.91;100514.81;5000386;28;50582;-72
2021/07/06 10:20:28;;;;;;;;;1.00;1.00;;;;;29.64;40.37;100519.03;4997452;28;45659;-67
2021/07/06 10:22:57;;;;;;;;;5.00;1.00;;;;;29.48;40.43;100520.25;5001289;28;45455;-65
2021/07/06 10:25:31;;;;;;;;;3.50;2.00;;;;;29.03;40.34;100525.59;4998820;28;45470;-68
2021/07/06 10:28:03;;;;;;;;;3.25;2.00;;;;;28.84;39.52;100525.38;5003131;28;46618;-69
2021/07/06 10:30:42;;;;;;;;;1.25;0.25;;;;;28.56;39.17;100528.69;4999835;28;45505;-67
2021/07/06 10:33:13;;;;;;;;;3.00;1.50;;;;;28.38;41.30;100530.03;4994454;28;45545;-67
2021/07/06 10:35:42;;;;;;;;;2.00;1.00;;;;;28.20;40.21;100532.22;4989721;28;45593;-63
2021/07/06 10:38:29;;;;;;;;;1.00;1.00;;;;;27.90;40.86;100527.59;4999391;28;46685;-67
2021/07/06 10:40:56;;;;;;;;;1.00;1.00;;;;;27.67;40.16;100537.03;4995294;28;45657;-70
2021/07/06 10:43:37;;;;;;;;;1.00;1.00;;;;;27.27;41.46;100529.53;4998068;28;45455;-70
2021/07/06 10:46:20;;;;;;;;;2.25;1.00;;;;;26.98;40.42;100535.38;4998729;28;46007;-67
2021/07/06 10:49:04;;;;;;;;;1.00;1.00;;;;;26.66;40.88;100530.84;5001991;28;45616;-67
2021/07/06 10:51:38;;;;;;;;;1.00;1.00;;;;;26.17;41.69;100541.81;5000045;28;45500;-74
2021/07/06 10:54:20;;;;;;;;;3.00;2.00;;;;;25.84;42.33;100537.38;4995994;28;45532;-67
2021/07/06 10:56:48;;;;;;;;;2.00;2.00;;;;;25.60;43.02;100553.94;5001160;28;45588;-75
2021/07/06 10:59:30;;;;;;;;;2.50;2.00;;;;;25.40;42.36;100549.09;5003023;28;45553;-64
2021/07/06 11:02:01;;;;;;;;;1.00;1.00;;;;;25.02;42.36;100544.50;4998443;28;45601;-64
2021/07/06 11:04:39;;;;;;;;;3.00;1.25;;;;;25.12;43.87;100558.16;5003363;28;45610;-75
2021/07/06 11:07:12;;;;;;;;;1.00;1.00;;;;;25.53;44.47;100551.41;5007941;28;45423;-66
2021/07/06 11:09:37;;;;;;;;;2.00;1.25;;;;;25.87;42.56;100551.28;5007037;28;45547;-66
2021/07/06 11:12:31;;;;;;;;;2.75;1.25;;;;;26.04;41.98;100556.59;5004997;28;45758;-64
2021/07/06 11:15:01;;;;;;;;;3.00;1.25;;;;;26.37;42.69;100558.22;5002322;28;45479;-64
2021/07/06 11:17:46;;;;;;;;;1.25;0.00;;;;;27.18;40.84;100559.91;5020198;28;45627;-64
2021/07/06 11:20:29;;;;;;;;;1.00;1.00;;;;;27.76;39.55;100565.25;5006730;28;45878;-67
2021/07/06 11:22:56;;;;;;;;;1.00;1.00;;;;;27.53;40.57;100554.88;5007443;28;45645;-62
2021/07/06 11:25:43;;;;;;;;;2.75;1.25;;;;;27.24;39.43;100564.25;5005987;28;46098;-66
2021/07/06 11:28:15;;;;;;;;;1.25;1.00;;;;;27.43;40.66;100556.47;5006136;28;45487;-78